sensor_id;sensor_type;location;lat;lon;timestamp;pressure;altitude;pressure_sealevel;temperature
12061;BMP180;6091;51.432;6.880;2023-04-04T00:00:38;102174.00;;;23.60
12061;BMP180;6091;51.432;6.880;2023-04-04T00:03:06;102169.00;;;23.60
12061;BMP180;6091;51.432;6.880;2023-04-04T00:05:33;102166.00;;;23.60
12061;BMP180;6091;51.432;6.880;2023-04-04T00:08:02;102172.00;;;23.60
12061;BMP180;6091;51.432;6.880;2023-04-04T00:10:29;102175.00;;;23.60
12061;BMP180;6091;51.432;6.880;2023-04-04T00:12:57;102173.00;;;23.60
12061;BMP180;6091;51.432;6.880;2023-04-04T00:15:25;102173.00;;;23.60
12061;BMP180;6091;51.432;6.880;2023-04-04T00:17:52;102176.00;;;23.60
12061;BMP180;6091;51.432;6.880;2023-04-04T00:20:19;102168.00;;;23.50
12061;BMP180;6091;51.432;6.880;2023-04-04T00:22:46;102179.00;;;23.50
12061;BMP180;6091;51.432;6.880;2023-04-04T00:25:13;102177.00;;;23.50
12061;BMP180;6091;51.432;6.880;2023-04-04T00:27:43;102173.00;;;23.50
12061;BMP180;6091;51.432;6.880;2023-04-04T00:30:11;102173.00;;;23.50
12061;BMP180;6091;51.432;6.880;2023-04-04T00:32:39;102183.00;;;23.50
12061;BMP180;6091;51.432;6.880;2023-04-04T00:35:07;102191.00;;;23.50
12061;BMP180;6091;51.432;6.880;2023-04-04T00:37:34;102184.00;;;23.40
12061;BMP180;6091;51.432;6.880;2023-04-04T00:40:02;102178.00;;;23.40
12061;BMP180;6091;51.432;6.880;2023-04-04T00:42:32;102185.00;;;23.40
12061;BMP180;6091;51.432;6.880;2023-04-04T00:45:00;102180.00;;;23.40
12061;BMP180;6091;51.432;6.880;2023-04-04T00:47:29;102178.00;;;23.40
12061;BMP180;6091;51.432;6.880;2023-04-04T00:49:57;102191.00;;;23.40
12061;BMP180;6091;51.432;6.880;2023-04-04T00:52:24;102180.00;;;23.30
12061;BMP180;6091;51.432;6.880;2023-04-04T00:54:54;102174.00;;;23.40
12061;BMP180;6091;51.432;6.880;2023-04-04T00:57:22;102173.00;;;23.30
12061;BMP180;6091;51.432;6.880;2023-04-04T00:59:50;102178.00;;;23.30
12061;BMP180;6091;51.432;6.880;2023-04-04T01:02:17;102181.00;;;23.30
12061;BMP180;6091;51.432;6.880;2023-04-04T01:04:45;102168.00;;;23.30
12061;BMP180;6091;51.432;6.880;2023-04-04T01:07:13;102175.00;;;23.30
12061;BMP180;6091;51.432;6.880;2023-04-04T01:09:40;102169.00;;;23.30
12061;BMP180;6091;51.432;6.880;2023-04-04T01:12:07;102158.00;;;23.30
12061;BMP180;6091;51.432;6.880;2023-04-04T01:14:35;102160.00;;;23.30
12061;BMP180;6091;51.432;6.880;2023-04-04T01:17:02;102152.00;;;23.30
12061;BMP180;6091;51.432;6.880;2023-04-04T01:19:48;102160.00;;;23.30
12061;BMP180;6091;51.432;6.880;2023-04-04T01:22:20;102170.00;;;23.20
12061;BMP180;6091;51.432;6.880;2023-04-04T01:24:49;102151.00;;;23.20
12061;BMP180;6091;51.432;6.880;2023-04-04T01:27:17;102161.00;;;23.20
12061;BMP180;6091;51.432;6.880;2023-04-04T01:29:44;102154.00;;;23.20
12061;BMP180;6091;51.432;6.880;2023-04-04T01:32:36;102146.00;;;23.20
12061;BMP180;6091;51.432;6.880;2023-04-04T01:35:39;102153.00;;;23.10
12061;BMP180;6091;51.432;6.880;2023-04-04T01:38:58;102149.00;;;23.10
12061;BMP180;6091;51.432;6.880;2023-04-04T01:41:32;102157.00;;;23.10
12061;BMP180;6091;51.432;6.880;2023-04-04T01:44:01;102144.00;;;23.10
12061;BMP180;6091;51.432;6.880;2023-04-04T01:46:29;102151.00;;;23.10
12061;BMP180;6091;51.432;6.880;2023-04-04T01:48:57;102152.00;;;23.10
12061;BMP180;6091;51.432;6.880;2023-04-04T01:51:24;102149.00;;;23.10
12061;BMP180;6091;51.432;6.880;2023-04-04T01:53:51;102140.00;;;23.10
12061;BMP180;6091;51.432;6.880;2023-04-04T01:56:18;102147.00;;;23.10
12061;BMP180;6091;51.432;6.880;2023-04-04T01:58:45;102136.00;;;23.00
12061;BMP180;6091;51.432;6.880;2023-04-04T02:01:13;102136.00;;;23.00
12061;BMP180;6091;51.432;6.880;2023-04-04T02:03:40;102133.00;;;23.00
12061;BMP180;6091;51.432;6.880;2023-04-04T02:06:08;102146.00;;;23.00
12061;BMP180;6091;51.432;6.880;2023-04-04T02:08:35;102145.00;;;23.00
12061;BMP180;6091;51.432;6.880;2023-04-04T02:11:04;102132.00;;;23.00
12061;BMP180;6091;51.432;6.880;2023-04-04T02:13:31;102138.00;;;23.00
12061;BMP180;6091;51.432;6.880;2023-04-04T02:15:58;102140.00;;;23.00
12061;BMP180;6091;51.432;6.880;2023-04-04T02:18:25;102143.00;;;23.00
12061;BMP180;6091;51.432;6.880;2023-04-04T02:20:56;102148.00;;;23.00
12061;BMP180;6091;51.432;6.880;2023-04-04T02:23:23;102144.00;;;23.00
12061;BMP180;6091;51.432;6.880;2023-04-04T02:25:50;102138.00;;;23.00
12061;BMP180;6091;51.432;6.880;2023-04-04T02:28:18;102146.00;;;22.90
12061;BMP180;6091;51.432;6.880;2023-04-04T02:30:45;102148.00;;;22.90
12061;BMP180;6091;51.432;6.880;2023-04-04T02:33:12;102144.00;;;22.90
12061;BMP180;6091;51.432;6.880;2023-04-04T02:35:42;102145.00;;;22.90
12061;BMP180;6091;51.432;6.880;2023-04-04T02:38:09;102145.00;;;22.90
12061;BMP180;6091;51.432;6.880;2023-04-04T02:40:37;102145.00;;;22.90
12061;BMP180;6091;51.432;6.880;2023-04-04T02:43:06;102134.00;;;22.90
12061;BMP180;6091;51.432;6.880;2023-04-04T02:45:33;102137.00;;;22.90
12061;BMP180;6091;51.432;6.880;2023-04-04T02:48:00;102136.00;;;22.90
12061;BMP180;6091;51.432;6.880;2023-04-04T02:50:28;102130.00;;;22.80
12061;BMP180;6091;51.432;6.880;2023-04-04T02:53:02;102116.00;;;22.80
12061;BMP180;6091;51.432;6.880;2023-04-04T02:55:29;102119.00;;;22.80
12061;BMP180;6091;51.432;6.880;2023-04-04T02:57:56;102117.00;;;22.80
12061;BMP180;6091;51.432;6.880;2023-04-04T03:00:23;102113.00;;;22.80
12061;BMP180;6091;51.432;6.880;2023-04-04T03:02:56;102125.00;;;22.80
12061;BMP180;6091;51.432;6.880;2023-04-04T03:05:25;102125.00;;;22.80
12061;BMP180;6091;51.432;6.880;2023-04-04T03:07:57;102125.00;;;22.80
12061;BMP180;6091;51.432;6.880;2023-04-04T03:10:26;102133.00;;;22.80
12061;BMP180;6091;51.432;6.880;2023-04-04T03:12:53;102125.00;;;22.80
12061;BMP180;6091;51.432;6.880;2023-04-04T03:15:20;102108.00;;;22.80
12061;BMP180;6091;51.432;6.880;2023-04-04T03:17:47;102117.00;;;22.80
12061;BMP180;6091;51.432;6.880;2023-04-04T03:20:14;102126.00;;;22.70
12061;BMP180;6091;51.432;6.880;2023-04-04T03:22:42;102125.00;;;22.70
12061;BMP180;6091;51.432;6.880;2023-04-04T03:25:09;102128.00;;;22.70
12061;BMP180;6091;51.432;6.880;2023-04-04T03:27:36;102131.00;;;22.70
12061;BMP180;6091;51.432;6.880;2023-04-04T03:30:07;102129.00;;;22.70
12061;BMP180;6091;51.432;6.880;2023-04-04T03:32:38;102116.00;;;22.70
12061;BMP180;6091;51.432;6.880;2023-04-04T03:35:06;102117.00;;;22.70
12061;BMP180;6091;51.432;6.880;2023-04-04T03:37:33;102109.00;;;22.70
12061;BMP180;6091;51.432;6.880;2023-04-04T03:40:01;102106.00;;;22.70
12061;BMP180;6091;51.432;6.880;2023-04-04T03:42:35;102109.00;;;22.60
12061;BMP180;6091;51.432;6.880;2023-04-04T03:45:02;102103.00;;;22.60
12061;BMP180;6091;51.432;6.880;2023-04-04T03:47:29;102118.00;;;22.60
12061;BMP180;6091;51.432;6.880;2023-04-04T03:49:56;102106.00;;;22.60
12061;BMP180;6091;51.432;6.880;2023-04-04T03:52:23;102106.00;;;22.60
12061;BMP180;6091;51.432;6.880;2023-04-04T03:54:51;102111.00;;;22.60
12061;BMP180;6091;51.432;6.880;2023-04-04T03:57:18;102112.00;;;22.60
12061;BMP180;6091;51.432;6.880;2023-04-04T03:59:45;102105.00;;;22.60
12061;BMP180;6091;51.432;6.880;2023-04-04T04:02:12;102105.00;;;22.60
12061;BMP180;6091;51.432;6.880;2023-04-04T04:04:39;102104.00;;;22.60
12061;BMP180;6091;51.432;6.880;2023-04-04T04:07:10;102105.00;;;22.60
12061;BMP180;6091;51.432;6.880;2023-04-04T04:09:37;102108.00;;;22.50
12061;BMP180;6091;51.432;6.880;2023-04-04T04:12:04;102104.00;;;22.50
12061;BMP180;6091;51.432;6.880;2023-04-04T04:14:32;102098.00;;;22.50
12061;BMP180;6091;51.432;6.880;2023-04-04T04:17:00;102092.00;;;22.50
12061;BMP180;6091;51.432;6.880;2023-04-04T04:19:27;102085.00;;;22.50
12061;BMP180;6091;51.432;6.880;2023-04-04T04:21:54;102091.00;;;22.50
12061;BMP180;6091;51.432;6.880;2023-04-04T04:24:22;102095.00;;;22.50
12061;BMP180;6091;51.432;6.880;2023-04-04T04:26:49;102085.00;;;22.50
12061;BMP180;6091;51.432;6.880;2023-04-04T04:29:16;102102.00;;;22.50
12061;BMP180;6091;51.432;6.880;2023-04-04T04:31:43;102100.00;;;22.50
12061;BMP180;6091;51.432;6.880;2023-04-04T04:34:10;102098.00;;;22.50
12061;BMP180;6091;51.432;6.880;2023-04-04T04:36:37;102098.00;;;22.50
12061;BMP180;6091;51.432;6.880;2023-04-04T04:39:04;102098.00;;;22.40
12061;BMP180;6091;51.432;6.880;2023-04-04T04:41:31;102102.00;;;22.40
12061;BMP180;6091;51.432;6.880;2023-04-04T04:43:58;102090.00;;;22.40
12061;BMP180;6091;51.432;6.880;2023-04-04T04:46:25;102097.00;;;22.40
12061;BMP180;6091;51.432;6.880;2023-04-04T04:48:53;102086.00;;;22.40
12061;BMP180;6091;51.432;6.880;2023-04-04T04:51:20;102089.00;;;22.40
12061;BMP180;6091;51.432;6.880;2023-04-04T04:53:47;102089.00;;;22.40
12061;BMP180;6091;51.432;6.880;2023-04-04T04:56:14;102095.00;;;22.40
12061;BMP180;6091;51.432;6.880;2023-04-04T04:58:41;102082.00;;;22.40
12061;BMP180;6091;51.432;6.880;2023-04-04T05:01:10;102086.00;;;22.40
12061;BMP180;6091;51.432;6.880;2023-04-04T05:03:37;102089.00;;;22.40
12061;BMP180;6091;51.432;6.880;2023-04-04T05:06:05;102090.00;;;22.40
12061;BMP180;6091;51.432;6.880;2023-04-04T05:08:32;102093.00;;;22.40
12061;BMP180;6091;51.432;6.880;2023-04-04T05:10:59;102091.00;;;22.40
12061;BMP180;6091;51.432;6.880;2023-04-04T05:13:28;102081.00;;;22.30
12061;BMP180;6091;51.432;6.880;2023-04-04T05:15:56;102096.00;;;22.30
12061;BMP180;6091;51.432;6.880;2023-04-04T05:18:26;102090.00;;;22.30
12061;BMP180;6091;51.432;6.880;2023-04-04T05:20:53;102093.00;;;22.30
12061;BMP180;6091;51.432;6.880;2023-04-04T05:23:21;102103.00;;;22.30
12061;BMP180;6091;51.432;6.880;2023-04-04T05:25:49;102095.00;;;22.30
12061;BMP180;6091;51.432;6.880;2023-04-04T05:28:20;102101.00;;;22.30
12061;BMP180;6091;51.432;6.880;2023-04-04T05:30:48;102102.00;;;22.30
12061;BMP180;6091;51.432;6.880;2023-04-04T05:33:15;102114.00;;;22.30
12061;BMP180;6091;51.432;6.880;2023-04-04T05:35:43;102107.00;;;22.30
12061;BMP180;6091;51.432;6.880;2023-04-04T05:38:10;102121.00;;;22.40
12061;BMP180;6091;51.432;6.880;2023-04-04T05:40:38;102119.00;;;22.40
12061;BMP180;6091;51.432;6.880;2023-04-04T05:43:06;102116.00;;;22.50
12061;BMP180;6091;51.432;6.880;2023-04-04T05:45:35;102113.00;;;22.70
12061;BMP180;6091;51.432;6.880;2023-04-04T05:48:04;102113.00;;;22.80
12061;BMP180;6091;51.432;6.880;2023-04-04T05:50:31;102121.00;;;23.00
12061;BMP180;6091;51.432;6.880;2023-04-04T05:52:58;102122.00;;;23.20
12061;BMP180;6091;51.432;6.880;2023-04-04T05:55:25;102133.00;;;23.40
12061;BMP180;6091;51.432;6.880;2023-04-04T05:57:54;102122.00;;;23.60
12061;BMP180;6091;51.432;6.880;2023-04-04T06:00:22;102121.00;;;23.70
12061;BMP180;6091;51.432;6.880;2023-04-04T06:02:49;102122.00;;;23.90
12061;BMP180;6091;51.432;6.880;2023-04-04T06:05:17;102138.00;;;24.00
12061;BMP180;6091;51.432;6.880;2023-04-04T06:07:45;102148.00;;;24.20
12061;BMP180;6091;51.432;6.880;2023-04-04T06:10:13;102151.00;;;24.70
12061;BMP180;6091;51.432;6.880;2023-04-04T06:12:41;102149.00;;;24.60
12061;BMP180;6091;51.432;6.880;2023-04-04T06:15:08;102162.00;;;24.70
12061;BMP180;6091;51.432;6.880;2023-04-04T06:17:35;102174.00;;;24.80
12061;BMP180;6091;51.432;6.880;2023-04-04T06:20:03;102173.00;;;24.90
12061;BMP180;6091;51.432;6.880;2023-04-04T06:22:30;102180.00;;;25.00
12061;BMP180;6091;51.432;6.880;2023-04-04T06:24:57;102181.00;;;25.10
12061;BMP180;6091;51.432;6.880;2023-04-04T06:27:25;102168.00;;;25.20
12061;BMP180;6091;51.432;6.880;2023-04-04T06:29:56;102175.00;;;25.40
12061;BMP180;6091;51.432;6.880;2023-04-04T06:32:23;102170.00;;;25.50
12061;BMP180;6091;51.432;6.880;2023-04-04T06:34:51;102183.00;;;25.60
12061;BMP180;6091;51.432;6.880;2023-04-04T06:37:19;102175.00;;;26.00
12061;BMP180;6091;51.432;6.880;2023-04-04T06:39:46;102183.00;;;25.90
12061;BMP180;6091;51.432;6.880;2023-04-04T06:42:13;102191.00;;;26.00
12061;BMP180;6091;51.432;6.880;2023-04-04T06:44:40;102190.00;;;26.00
12061;BMP180;6091;51.432;6.880;2023-04-04T06:47:07;102190.00;;;26.10
12061;BMP180;6091;51.432;6.880;2023-04-04T06:49:34;102188.00;;;26.10
12061;BMP180;6091;51.432;6.880;2023-04-04T06:52:01;102191.00;;;26.20
12061;BMP180;6091;51.432;6.880;2023-04-04T06:54:29;102181.00;;;26.20
12061;BMP180;6091;51.432;6.880;2023-04-04T06:56:57;102183.00;;;26.30
12061;BMP180;6091;51.432;6.880;2023-04-04T06:59:24;102182.00;;;26.30
12061;BMP180;6091;51.432;6.880;2023-04-04T07:01:51;102188.00;;;26.30
12061;BMP180;6091;51.432;6.880;2023-04-04T07:04:18;102184.00;;;26.40
12061;BMP180;6091;51.432;6.880;2023-04-04T07:06:46;102193.00;;;26.40
12061;BMP180;6091;51.432;6.880;2023-04-04T07:09:13;102199.00;;;26.40
12061;BMP180;6091;51.432;6.880;2023-04-04T07:11:51;102195.00;;;26.40
12061;BMP180;6091;51.432;6.880;2023-04-04T07:14:18;102193.00;;;26.50
12061;BMP180;6091;51.432;6.880;2023-04-04T07:16:51;102192.00;;;26.40
12061;BMP180;6091;51.432;6.880;2023-04-04T07:19:19;102185.00;;;26.40
12061;BMP180;6091;51.432;6.880;2023-04-04T07:21:46;102185.00;;;26.30
12061;BMP180;6091;51.432;6.880;2023-04-04T07:24:14;102186.00;;;26.30
12061;BMP180;6091;51.432;6.880;2023-04-04T07:26:41;102190.00;;;26.30
12061;BMP180;6091;51.432;6.880;2023-04-04T07:29:08;102195.00;;;26.30
12061;BMP180;6091;51.432;6.880;2023-04-04T07:31:35;102197.00;;;26.30
12061;BMP180;6091;51.432;6.880;2023-04-04T07:34:03;102172.00;;;26.20
12061;BMP180;6091;51.432;6.880;2023-04-04T07:36:30;102190.00;;;26.20
12061;BMP180;6091;51.432;6.880;2023-04-04T07:38:57;102191.00;;;26.20
12061;BMP180;6091;51.432;6.880;2023-04-04T07:41:24;102189.00;;;26.20
12061;BMP180;6091;51.432;6.880;2023-04-04T07:43:52;102181.00;;;26.20
12061;BMP180;6091;51.432;6.880;2023-04-04T07:46:19;102186.00;;;26.20
12061;BMP180;6091;51.432;6.880;2023-04-04T07:48:47;102176.00;;;26.20
12061;BMP180;6091;51.432;6.880;2023-04-04T07:51:14;102177.00;;;26.30
12061;BMP180;6091;51.432;6.880;2023-04-04T07:53:41;102173.00;;;26.30
12061;BMP180;6091;51.432;6.880;2023-04-04T07:56:08;102177.00;;;26.30
12061;BMP180;6091;51.432;6.880;2023-04-04T07:58:35;102166.00;;;26.30
12061;BMP180;6091;51.432;6.880;2023-04-04T08:01:02;102173.00;;;26.30
12061;BMP180;6091;51.432;6.880;2023-04-04T08:03:30;102170.00;;;26.30
12061;BMP180;6091;51.432;6.880;2023-04-04T08:05:57;102165.00;;;26.30
12061;BMP180;6091;51.432;6.880;2023-04-04T08:08:24;102165.00;;;26.40
12061;BMP180;6091;51.432;6.880;2023-04-04T08:10:51;102166.00;;;26.40
12061;BMP180;6091;51.432;6.880;2023-04-04T08:13:19;102174.00;;;26.70
12061;BMP180;6091;51.432;6.880;2023-04-04T08:15:46;102167.00;;;26.60
12061;BMP180;6091;51.432;6.880;2023-04-04T08:18:14;102172.00;;;26.50
12061;BMP180;6091;51.432;6.880;2023-04-04T08:20:41;102173.00;;;26.50
12061;BMP180;6091;51.432;6.880;2023-04-04T08:23:08;102163.00;;;26.50
12061;BMP180;6091;51.432;6.880;2023-04-04T08:25:35;102178.00;;;26.50
12061;BMP180;6091;51.432;6.880;2023-04-04T08:28:02;102175.00;;;26.60
12061;BMP180;6091;51.432;6.880;2023-04-04T08:30:31;102180.00;;;26.60
12061;BMP180;6091;51.432;6.880;2023-04-04T08:32:58;102170.00;;;26.60
12061;BMP180;6091;51.432;6.880;2023-04-04T08:35:26;102181.00;;;26.60
12061;BMP180;6091;51.432;6.880;2023-04-04T08:37:53;102174.00;;;26.60
12061;BMP180;6091;51.432;6.880;2023-04-04T08:40:21;102178.00;;;26.70
12061;BMP180;6091;51.432;6.880;2023-04-04T08:42:50;102178.00;;;26.70
12061;BMP180;6091;51.432;6.880;2023-04-04T08:45:18;102172.00;;;26.70
12061;BMP180;6091;51.432;6.880;2023-04-04T08:47:47;102182.00;;;26.70
12061;BMP180;6091;51.432;6.880;2023-04-04T08:50:18;102184.00;;;26.70
12061;BMP180;6091;51.432;6.880;2023-04-04T08:52:46;102178.00;;;26.70
12061;BMP180;6091;51.432;6.880;2023-04-04T08:55:13;102176.00;;;26.70
12061;BMP180;6091;51.432;6.880;2023-04-04T08:57:41;102185.00;;;26.70
12061;BMP180;6091;51.432;6.880;2023-04-04T09:00:09;102188.00;;;26.70
12061;BMP180;6091;51.432;6.880;2023-04-04T09:03:08;102183.00;;;26.70
12061;BMP180;6091;51.432;6.880;2023-04-04T09:05:37;102171.00;;;26.70
12061;BMP180;6091;51.432;6.880;2023-04-04T09:08:04;102163.00;;;26.70
12061;BMP180;6091;51.432;6.880;2023-04-04T09:10:34;102176.00;;;26.70
12061;BMP180;6091;51.432;6.880;2023-04-04T09:13:04;102178.00;;;26.70
12061;BMP180;6091;51.432;6.880;2023-04-04T09:15:50;102175.00;;;26.70
12061;BMP180;6091;51.432;6.880;2023-04-04T09:18:17;102165.00;;;26.70
12061;BMP180;6091;51.432;6.880;2023-04-04T09:20:48;102168.00;;;26.70
12061;BMP180;6091;51.432;6.880;2023-04-04T09:23:18;102162.00;;;26.80
12061;BMP180;6091;51.432;6.880;2023-04-04T09:25:48;102166.00;;;26.80
12061;BMP180;6091;51.432;6.880;2023-04-04T09:28:20;102163.00;;;26.80
12061;BMP180;6091;51.432;6.880;2023-04-04T09:30:50;102165.00;;;26.80
12061;BMP180;6091;51.432;6.880;2023-04-04T09:33:22;102154.00;;;26.80
12061;BMP180;6091;51.432;6.880;2023-04-04T09:36:04;102158.00;;;26.90
12061;BMP180;6091;51.432;6.880;2023-04-04T09:38:36;102148.00;;;26.80
12061;BMP180;6091;51.432;6.880;2023-04-04T09:41:07;102155.00;;;26.80
12061;BMP180;6091;51.432;6.880;2023-04-04T09:43:36;102147.00;;;26.90
12061;BMP180;6091;51.432;6.880;2023-04-04T09:46:05;102160.00;;;26.90
12061;BMP180;6091;51.432;6.880;2023-04-04T09:48:34;102155.00;;;26.90
12061;BMP180;6091;51.432;6.880;2023-04-04T09:51:08;102153.00;;;26.90
12061;BMP180;6091;51.432;6.880;2023-04-04T09:53:38;102149.00;;;26.90
12061;BMP180;6091;51.432;6.880;2023-04-04T09:56:08;102159.00;;;26.90
12061;BMP180;6091;51.432;6.880;2023-04-04T09:58:37;102155.00;;;26.90
12061;BMP180;6091;51.432;6.880;2023-04-04T10:01:18;102145.00;;;26.90
12061;BMP180;6091;51.432;6.880;2023-04-04T10:03:53;102150.00;;;26.90
12061;BMP180;6091;51.432;6.880;2023-04-04T10:06:22;102148.00;;;26.90
12061;BMP180;6091;51.432;6.880;2023-04-04T10:08:50;102136.00;;;26.90
12061;BMP180;6091;51.432;6.880;2023-04-04T10:11:32;102142.00;;;26.90
12061;BMP180;6091;51.432;6.880;2023-04-04T10:14:01;102145.00;;;26.90
12061;BMP180;6091;51.432;6.880;2023-04-04T10:16:32;102137.00;;;26.90
12061;BMP180;6091;51.432;6.880;2023-04-04T10:19:03;102136.00;;;26.90
12061;BMP180;6091;51.432;6.880;2023-04-04T10:21:30;102131.00;;;26.90
12061;BMP180;6091;51.432;6.880;2023-04-04T10:23:58;102131.00;;;27.00
12061;BMP180;6091;51.432;6.880;2023-04-04T10:26:29;102125.00;;;27.30
12061;BMP180;6091;51.432;6.880;2023-04-04T10:28:56;102129.00;;;27.60
12061;BMP180;6091;51.432;6.880;2023-04-04T10:31:24;102130.00;;;27.90
12061;BMP180;6091;51.432;6.880;2023-04-04T10:34:17;102145.00;;;28.30
12061;BMP180;6091;51.432;6.880;2023-04-04T10:37:19;102126.00;;;28.60
12061;BMP180;6091;51.432;6.880;2023-04-04T10:40:06;102134.00;;;28.70
12061;BMP180;6091;51.432;6.880;2023-04-04T10:42:44;102117.00;;;28.80
12061;BMP180;6091;51.432;6.880;2023-04-04T10:45:14;102138.00;;;28.70
12061;BMP180;6091;51.432;6.880;2023-04-04T10:47:48;102119.00;;;28.60
12061;BMP180;6091;51.432;6.880;2023-04-04T10:50:18;102121.00;;;28.50
12061;BMP180;6091;51.432;6.880;2023-04-04T10:52:47;102105.00;;;28.50
12061;BMP180;6091;51.432;6.880;2023-04-04T10:55:15;102120.00;;;28.50
12061;BMP180;6091;51.432;6.880;2023-04-04T10:57:46;102114.00;;;28.40
12061;BMP180;6091;51.432;6.880;2023-04-04T11:00:18;102103.00;;;28.40
12061;BMP180;6091;51.432;6.880;2023-04-04T11:02:58;102102.00;;;28.50
12061;BMP180;6091;51.432;6.880;2023-04-04T11:05:36;102101.00;;;28.50
12061;BMP180;6091;51.432;6.880;2023-04-04T11:08:10;102089.00;;;28.60
12061;BMP180;6091;51.432;6.880;2023-04-04T11:10:46;102094.00;;;28.60
12061;BMP180;6091;51.432;6.880;2023-04-04T11:13:24;102098.00;;;28.80
12061;BMP180;6091;51.432;6.880;2023-04-04T11:16:05;102081.00;;;28.90
12061;BMP180;6091;51.432;6.880;2023-04-04T11:21:20;102082.00;;;29.10
12061;BMP180;6091;51.432;6.880;2023-04-04T11:29:01;102078.00;;;29.60
12061;BMP180;6091;51.432;6.880;2023-04-04T11:31:38;102080.00;;;29.70
12061;BMP180;6091;51.432;6.880;2023-04-04T11:34:09;102079.00;;;29.80
12061;BMP180;6091;51.432;6.880;2023-04-04T11:42:10;102075.00;;;30.20
12061;BMP180;6091;51.432;6.880;2023-04-04T11:47:18;102071.00;;;30.30
12061;BMP180;6091;51.432;6.880;2023-04-04T11:49:46;102062.00;;;30.40
12061;BMP180;6091;51.432;6.880;2023-04-04T11:52:16;102071.00;;;30.50
12061;BMP180;6091;51.432;6.880;2023-04-04T11:54:47;102075.00;;;30.60
12061;BMP180;6091;51.432;6.880;2023-04-04T11:57:19;102069.00;;;30.60
12061;BMP180;6091;51.432;6.880;2023-04-04T11:59:49;102071.00;;;30.60
12061;BMP180;6091;51.432;6.880;2023-04-04T12:02:24;102060.00;;;30.70
12061;BMP180;6091;51.432;6.880;2023-04-04T12:05:00;102064.00;;;30.70
12061;BMP180;6091;51.432;6.880;2023-04-04T12:07:29;102061.00;;;30.80
12061;BMP180;6091;51.432;6.880;2023-04-04T12:09:56;102061.00;;;30.80
12061;BMP180;6091;51.432;6.880;2023-04-04T12:12:25;102069.00;;;30.90
12061;BMP180;6091;51.432;6.880;2023-04-04T12:14:54;102062.00;;;30.90
12061;BMP180;6091;51.432;6.880;2023-04-04T12:17:41;102056.00;;;31.00
12061;BMP180;6091;51.432;6.880;2023-04-04T12:20:10;102050.00;;;31.00
12061;BMP180;6091;51.432;6.880;2023-04-04T12:22:37;102040.00;;;31.10
12061;BMP180;6091;51.432;6.880;2023-04-04T12:25:05;102037.00;;;31.20
12061;BMP180;6091;51.432;6.880;2023-04-04T12:27:33;102033.00;;;31.30
12061;BMP180;6091;51.432;6.880;2023-04-04T12:30:01;102026.00;;;31.30
12061;BMP180;6091;51.432;6.880;2023-04-04T12:32:30;102034.00;;;31.40
12061;BMP180;6091;51.432;6.880;2023-04-04T12:35:01;102029.00;;;31.50
12061;BMP180;6091;51.432;6.880;2023-04-04T12:37:30;102023.00;;;31.50
12061;BMP180;6091;51.432;6.880;2023-04-04T12:39:57;102019.00;;;31.60
12061;BMP180;6091;51.432;6.880;2023-04-04T12:42:30;102016.00;;;31.60
12061;BMP180;6091;51.432;6.880;2023-04-04T12:45:00;102007.00;;;31.70
12061;BMP180;6091;51.432;6.880;2023-04-04T12:47:30;101999.00;;;31.70
12061;BMP180;6091;51.432;6.880;2023-04-04T12:49:58;102002.00;;;31.80
12061;BMP180;6091;51.432;6.880;2023-04-04T12:52:28;102017.00;;;31.90
12061;BMP180;6091;51.432;6.880;2023-04-04T12:55:07;102007.00;;;31.90
12061;BMP180;6091;51.432;6.880;2023-04-04T12:57:39;102013.00;;;31.90
12061;BMP180;6091;51.432;6.880;2023-04-04T13:00:07;101999.00;;;32.00
12061;BMP180;6091;51.432;6.880;2023-04-04T13:02:37;101994.00;;;32.00
12061;BMP180;6091;51.432;6.880;2023-04-04T13:05:06;101992.00;;;32.00
12061;BMP180;6091;51.432;6.880;2023-04-04T13:07:40;101990.00;;;32.10
12061;BMP180;6091;51.432;6.880;2023-04-04T13:10:13;101991.00;;;32.10
12061;BMP180;6091;51.432;6.880;2023-04-04T13:12:58;101983.00;;;32.20
12061;BMP180;6091;51.432;6.880;2023-04-04T13:15:51;101969.00;;;32.20
12061;BMP180;6091;51.432;6.880;2023-04-04T13:18:24;101963.00;;;32.20
12061;BMP180;6091;51.432;6.880;2023-04-04T13:20:53;101961.00;;;32.20
12061;BMP180;6091;51.432;6.880;2023-04-04T13:23:22;101961.00;;;32.30
12061;BMP180;6091;51.432;6.880;2023-04-04T13:25:50;101966.00;;;32.30
12061;BMP180;6091;51.432;6.880;2023-04-04T13:28:17;101954.00;;;32.20
12061;BMP180;6091;51.432;6.880;2023-04-04T13:30:45;101960.00;;;32.00
12061;BMP180;6091;51.432;6.880;2023-04-04T13:33:19;101953.00;;;32.10
12061;BMP180;6091;51.432;6.880;2023-04-04T13:35:49;101942.00;;;32.00
12061;BMP180;6091;51.432;6.880;2023-04-04T13:38:17;101948.00;;;31.90
12061;BMP180;6091;51.432;6.880;2023-04-04T13:40:45;101947.00;;;31.80
12061;BMP180;6091;51.432;6.880;2023-04-04T13:43:15;101929.00;;;31.70
12061;BMP180;6091;51.432;6.880;2023-04-04T13:45:42;101941.00;;;31.60
12061;BMP180;6091;51.432;6.880;2023-04-04T13:48:12;101931.00;;;31.50
12061;BMP180;6091;51.432;6.880;2023-04-04T13:50:45;101928.00;;;31.40
12061;BMP180;6091;51.432;6.880;2023-04-04T13:53:17;101923.00;;;31.30
12061;BMP180;6091;51.432;6.880;2023-04-04T13:55:44;101924.00;;;31.20
12061;BMP180;6091;51.432;6.880;2023-04-04T13:58:15;101919.00;;;31.10
12061;BMP180;6091;51.432;6.880;2023-04-04T14:00:48;101920.00;;;31.00
12061;BMP180;6091;51.432;6.880;2023-04-04T14:03:17;101901.00;;;30.90
12061;BMP180;6091;51.432;6.880;2023-04-04T14:05:44;101909.00;;;30.80
12061;BMP180;6091;51.432;6.880;2023-04-04T14:08:12;101897.00;;;30.60
12061;BMP180;6091;51.432;6.880;2023-04-04T14:10:40;101888.00;;;30.50
12061;BMP180;6091;51.432;6.880;2023-04-04T14:13:07;101897.00;;;30.40
12061;BMP180;6091;51.432;6.880;2023-04-04T14:15:37;101896.00;;;30.30
12061;BMP180;6091;51.432;6.880;2023-04-04T14:18:06;101900.00;;;30.20
12061;BMP180;6091;51.432;6.880;2023-04-04T14:20:37;101893.00;;;30.20
12061;BMP180;6091;51.432;6.880;2023-04-04T14:23:04;101877.00;;;30.10
12061;BMP180;6091;51.432;6.880;2023-04-04T14:25:33;101890.00;;;30.10
12061;BMP180;6091;51.432;6.880;2023-04-04T14:28:00;101875.00;;;30.00
12061;BMP180;6091;51.432;6.880;2023-04-04T14:30:27;101876.00;;;30.00
12061;BMP180;6091;51.432;6.880;2023-04-04T14:32:55;101873.00;;;30.00
12061;BMP180;6091;51.432;6.880;2023-04-04T14:35:22;101861.00;;;29.90
12061;BMP180;6091;51.432;6.880;2023-04-04T14:37:50;101880.00;;;29.80